Aéroport int. de Vancouver, Colombie-Britannique

Conditions des dernières 24 heures

Ce tableau est un sommaire des conditions météo couvrant les dernières 24 heures. Ce sommaire inclut les paramètres suivants: température, humidité, point de rosée, direction et vitesse du vent, pression barométrique, facteur de refroidissement éolien ou indice humidex.
Date / Heure
(HAP)
Conditions Temp (°F) Humidite (%) Point de rose (°F) Vent (mph) Pression (pouces) Visibilité (miles)
25 juillet 2014
1:00 Généralement nuageux 57 80 51 E 10 30.2 15
0:00 Généralement nuageux 58 82 52 E 11 30.2 15
24 juillet 2014
23:00 Généralement nuageux 59 82 54 E 11 30.2 15
22:00 Généralement nuageux 62 75 55 ENE 7 30.2 15
21:00 Généralement nuageux 63 72 54 S 5 30.2 15
20:00 Généralement nuageux 66 64 53 SSE 5 30.2 15
19:00 Généralement nuageux 66 65 55 SE 5 30.2 15
18:00 Généralement nuageux 67 63 54 E 7 30.2 15
17:00 Généralement nuageux 68   61 54 ENE 5 30.2 15
16:00 Généralement nuageux 64 72 55 SE 7 30.2 15
15:00 Généralement nuageux 65 74 57 SE 10 30.2 15
14:00 Généralement nuageux 63 68 53 OSO 4 30.2 15
13:00 Généralement nuageux 64 73 55 SSO 5 30.2 15
12:00 Généralement nuageux 62 76 54 SSO 3 30.1 15
11:00 Généralement nuageux 63 79 56 ONO 5 30.1 15
10:00 Généralement nuageux 59 89 56 SE 6 30.1 15
9:00 Généralement nuageux 57 92 55 SSE 10 30.1 15
8:00 Pluie faible 57 94 55 SSE 10 30.1 12
7:00 Pluie faible 56   97 55 SSE 9 30.0 10
6:00 Pluie faible 56   97 55 SE 10 30.0 8
5:00 Pluie faible 56   97 55 SE 8 30.0 12
4:00 Pluie faible 56   96 55 SE 8 30.0 12
3:00 Pluie faible 56   97 55 E 8 30.0 12
2:00 Pluie faible 57 96 56 ESE 9 30.0 12
1:00 Pluie faible 57 95 55 E 9 30.0 12
N.D.
non disponible
 ↑ 
température la plus haute
 ↓ 
température la plus basse

Si vous désirez plus de données historiques sur les conditions météo, s.v.p. visitez Données climatologiques en ligne.